sensor_id;sensor_type;location;lat;lon;timestamp;pressure;altitude;pressure_sealevel;temperature
70831;BMP180;58451;51.550;7.208;2023-06-19T00:01:16;100218.40;;;23.80
70831;BMP180;58451;51.550;7.208;2023-06-19T00:02:48;100216.00;;;23.80
70831;BMP180;58451;51.550;7.208;2023-06-19T00:04:20;100214.20;;;23.80
70831;BMP180;58451;51.550;7.208;2023-06-19T00:05:52;100211.80;;;23.80
70831;BMP180;58451;51.550;7.208;2023-06-19T00:07:24;100210.00;;;23.80
70831;BMP180;58451;51.550;7.208;2023-06-19T00:08:56;100213.40;;;23.80
70831;BMP180;58451;51.550;7.208;2023-06-19T00:10:28;100215.40;;;23.74
70831;BMP180;58451;51.550;7.208;2023-06-19T00:12:00;100214.40;;;23.70
70831;BMP180;58451;51.550;7.208;2023-06-19T00:13:33;100214.60;;;23.70
70831;BMP180;58451;51.550;7.208;2023-06-19T00:15:06;100209.20;;;23.70
70831;BMP180;58451;51.550;7.208;2023-06-19T00:16:41;100209.40;;;23.70
70831;BMP180;58451;51.550;7.208;2023-06-19T00:18:13;100211.80;;;23.70
70831;BMP180;58451;51.550;7.208;2023-06-19T00:19:47;100206.40;;;23.60
70831;BMP180;58451;51.550;7.208;2023-06-19T00:21:20;100209.20;;;23.60
70831;BMP180;58451;51.550;7.208;2023-06-19T00:22:52;100210.20;;;23.60
70831;BMP180;58451;51.550;7.208;2023-06-19T00:24:24;100209.60;;;23.60
70831;BMP180;58451;51.550;7.208;2023-06-19T00:25:56;100209.20;;;23.60
70831;BMP180;58451;51.550;7.208;2023-06-19T00:27:28;100210.80;;;23.54
70831;BMP180;58451;51.550;7.208;2023-06-19T00:29:00;100212.20;;;23.52
70831;BMP180;58451;51.550;7.208;2023-06-19T00:30:33;100215.20;;;23.50
70831;BMP180;58451;51.550;7.208;2023-06-19T00:32:05;100211.80;;;23.50
70831;BMP180;58451;51.550;7.208;2023-06-19T00:33:39;100212.00;;;23.48
70831;BMP180;58451;51.550;7.208;2023-06-19T00:35:16;100213.00;;;23.40
70831;BMP180;58451;51.550;7.208;2023-06-19T00:36:52;100217.80;;;23.40
70831;BMP180;58451;51.550;7.208;2023-06-19T00:38:28;100216.60;;;23.40
70831;BMP180;58451;51.550;7.208;2023-06-19T00:40:00;100216.80;;;23.38
70831;BMP180;58451;51.550;7.208;2023-06-19T00:41:35;100220.40;;;23.30
70831;BMP180;58451;51.550;7.208;2023-06-19T00:43:07;100217.20;;;23.30
70831;BMP180;58451;51.550;7.208;2023-06-19T00:44:40;100218.00;;;23.30
70831;BMP180;58451;51.550;7.208;2023-06-19T00:46:12;100221.00;;;23.26
70831;BMP180;58451;51.550;7.208;2023-06-19T00:47:45;100220.40;;;23.20
70831;BMP180;58451;51.550;7.208;2023-06-19T00:49:18;100224.80;;;23.20
70831;BMP180;58451;51.550;7.208;2023-06-19T00:50:50;100222.60;;;23.20
70831;BMP180;58451;51.550;7.208;2023-06-19T00:52:22;100221.20;;;23.10
70831;BMP180;58451;51.550;7.208;2023-06-19T00:53:54;100226.00;;;23.10
70831;BMP180;58451;51.550;7.208;2023-06-19T00:55:29;100227.40;;;23.10
70831;BMP180;58451;51.550;7.208;2023-06-19T00:57:02;100228.60;;;23.08
70831;BMP180;58451;51.550;7.208;2023-06-19T00:58:34;100232.60;;;23.00
70831;BMP180;58451;51.550;7.208;2023-06-19T01:00:08;100232.40;;;23.00
70831;BMP180;58451;51.550;7.208;2023-06-19T01:01:42;100234.80;;;23.00
70831;BMP180;58451;51.550;7.208;2023-06-19T01:03:15;100234.40;;;22.90
70831;BMP180;58451;51.550;7.208;2023-06-19T01:04:50;100235.60;;;22.90
70831;BMP180;58451;51.550;7.208;2023-06-19T01:06:38;100233.40;;;22.90
70831;BMP180;58451;51.550;7.208;2023-06-19T01:10:19;100228.80;;;22.80
70831;BMP180;58451;51.550;7.208;2023-06-19T01:12:01;100227.60;;;22.80
70831;BMP180;58451;51.550;7.208;2023-06-19T01:13:45;100228.40;;;22.80
70831;BMP180;58451;51.550;7.208;2023-06-19T01:15:20;100230.20;;;22.70
70831;BMP180;58451;51.550;7.208;2023-06-19T01:16:53;100230.00;;;22.70
70831;BMP180;58451;51.550;7.208;2023-06-19T01:18:33;100229.80;;;22.70
70831;BMP180;58451;51.550;7.208;2023-06-19T01:20:08;100232.00;;;22.70
70831;BMP180;58451;51.550;7.208;2023-06-19T01:21:43;100232.80;;;22.70
70831;BMP180;58451;51.550;7.208;2023-06-19T01:23:16;100230.80;;;22.62
70831;BMP180;58451;51.550;7.208;2023-06-19T01:24:48;100228.80;;;22.60
70831;BMP180;58451;51.550;7.208;2023-06-19T01:26:23;100232.80;;;22.60
70831;BMP180;58451;51.550;7.208;2023-06-19T01:28:07;100231.80;;;22.60
70831;BMP180;58451;51.550;7.208;2023-06-19T01:29:41;100229.00;;;22.60
70831;BMP180;58451;51.550;7.208;2023-06-19T01:31:35;100231.20;;;22.60
70831;BMP180;58451;51.550;7.208;2023-06-19T01:34:52;100226.80;;;22.60
70831;BMP180;58451;51.550;7.208;2023-06-19T01:36:27;100219.40;;;22.50
70831;BMP180;58451;51.550;7.208;2023-06-19T01:38:01;100220.80;;;22.50
70831;BMP180;58451;51.550;7.208;2023-06-19T01:39:37;100218.40;;;22.50
70831;BMP180;58451;51.550;7.208;2023-06-19T01:41:10;100217.60;;;22.50
70831;BMP180;58451;51.550;7.208;2023-06-19T01:42:46;100216.20;;;22.50
70831;BMP180;58451;51.550;7.208;2023-06-19T01:44:19;100218.80;;;22.50
70831;BMP180;58451;51.550;7.208;2023-06-19T01:45:52;100220.60;;;22.40
70831;BMP180;58451;51.550;7.208;2023-06-19T01:47:24;100216.80;;;22.40
70831;BMP180;58451;51.550;7.208;2023-06-19T01:48:56;100213.80;;;22.40
70831;BMP180;58451;51.550;7.208;2023-06-19T01:50:30;100210.80;;;22.38
70831;BMP180;58451;51.550;7.208;2023-06-19T01:52:01;100210.40;;;22.30
70831;BMP180;58451;51.550;7.208;2023-06-19T01:53:34;100208.60;;;22.30
70831;BMP180;58451;51.550;7.208;2023-06-19T01:55:09;100203.60;;;22.20
70831;BMP180;58451;51.550;7.208;2023-06-19T01:56:41;100200.80;;;22.20
70831;BMP180;58451;51.550;7.208;2023-06-19T01:58:13;100200.40;;;22.10
70831;BMP180;58451;51.550;7.208;2023-06-19T01:59:45;100205.40;;;22.10
70831;BMP180;58451;51.550;7.208;2023-06-19T02:01:17;100207.20;;;22.00
70831;BMP180;58451;51.550;7.208;2023-06-19T02:02:49;100207.60;;;21.98
70831;BMP180;58451;51.550;7.208;2023-06-19T02:04:21;100209.20;;;21.90
70831;BMP180;58451;51.550;7.208;2023-06-19T02:05:53;100205.80;;;21.90
70831;BMP180;58451;51.550;7.208;2023-06-19T02:07:25;100208.40;;;21.86
70831;BMP180;58451;51.550;7.208;2023-06-19T02:08:57;100211.60;;;21.80
70831;BMP180;58451;51.550;7.208;2023-06-19T02:10:29;100213.60;;;21.80
70831;BMP180;58451;51.550;7.208;2023-06-19T02:12:01;100212.60;;;21.78
70831;BMP180;58451;51.550;7.208;2023-06-19T02:13:33;100215.60;;;21.70
70831;BMP180;58451;51.550;7.208;2023-06-19T02:15:06;100214.00;;;21.70
70831;BMP180;58451;51.550;7.208;2023-06-19T02:16:38;100215.80;;;21.70
70831;BMP180;58451;51.550;7.208;2023-06-19T02:18:13;100210.20;;;21.70
70831;BMP180;58451;51.550;7.208;2023-06-19T02:19:46;100211.00;;;21.68
70831;BMP180;58451;51.550;7.208;2023-06-19T02:21:18;100209.60;;;21.60
70831;BMP180;58451;51.550;7.208;2023-06-19T02:22:51;100211.40;;;21.60
70831;BMP180;58451;51.550;7.208;2023-06-19T02:24:23;100213.00;;;21.60
70831;BMP180;58451;51.550;7.208;2023-06-19T02:25:55;100210.00;;;21.60
70831;BMP180;58451;51.550;7.208;2023-06-19T02:27:27;100212.80;;;21.60
70831;BMP180;58451;51.550;7.208;2023-06-19T02:28:59;100210.80;;;21.60
70831;BMP180;58451;51.550;7.208;2023-06-19T02:30:31;100219.40;;;21.60
70831;BMP180;58451;51.550;7.208;2023-06-19T02:32:03;100222.00;;;21.56
70831;BMP180;58451;51.550;7.208;2023-06-19T02:33:35;100224.20;;;21.50
70831;BMP180;58451;51.550;7.208;2023-06-19T02:35:10;100226.00;;;21.50
70831;BMP180;58451;51.550;7.208;2023-06-19T02:36:43;100231.60;;;21.50
70831;BMP180;58451;51.550;7.208;2023-06-19T02:38:15;100237.40;;;21.52
70831;BMP180;58451;51.550;7.208;2023-06-19T02:39:47;100238.60;;;21.56
70831;BMP180;58451;51.550;7.208;2023-06-19T02:41:19;100237.80;;;21.60
70831;BMP180;58451;51.550;7.208;2023-06-19T02:42:51;100242.80;;;21.60
70831;BMP180;58451;51.550;7.208;2023-06-19T02:44:23;100243.40;;;21.60
70831;BMP180;58451;51.550;7.208;2023-06-19T02:45:55;100240.00;;;21.60
70831;BMP180;58451;51.550;7.208;2023-06-19T02:47:26;100239.60;;;21.60
70831;BMP180;58451;51.550;7.208;2023-06-19T02:48:58;100243.80;;;21.60
70831;BMP180;58451;51.550;7.208;2023-06-19T02:50:31;100246.20;;;21.60
70831;BMP180;58451;51.550;7.208;2023-06-19T02:52:04;100248.60;;;21.60
70831;BMP180;58451;51.550;7.208;2023-06-19T02:53:37;100255.20;;;21.60
70831;BMP180;58451;51.550;7.208;2023-06-19T02:55:09;100258.00;;;21.60
70831;BMP180;58451;51.550;7.208;2023-06-19T02:56:41;100260.20;;;21.60
70831;BMP180;58451;51.550;7.208;2023-06-19T02:58:15;100263.80;;;21.60
70831;BMP180;58451;51.550;7.208;2023-06-19T02:59:49;100266.20;;;21.60
70831;BMP180;58451;51.550;7.208;2023-06-19T03:01:21;100266.80;;;21.60
70831;BMP180;58451;51.550;7.208;2023-06-19T03:02:53;100272.80;;;21.60
70831;BMP180;58451;51.550;7.208;2023-06-19T03:04:25;100270.60;;;21.60
70831;BMP180;58451;51.550;7.208;2023-06-19T03:06:00;100267.80;;;21.64
70831;BMP180;58451;51.550;7.208;2023-06-19T03:07:32;100272.60;;;21.70
70831;BMP180;58451;51.550;7.208;2023-06-19T03:09:06;100274.40;;;21.70
70831;BMP180;58451;51.550;7.208;2023-06-19T03:10:43;100276.20;;;21.70
70831;BMP180;58451;51.550;7.208;2023-06-19T03:12:16;100279.20;;;21.70
70831;BMP180;58451;51.550;7.208;2023-06-19T03:13:52;100280.20;;;21.76
70831;BMP180;58451;51.550;7.208;2023-06-19T03:15:25;100284.00;;;21.80
70831;BMP180;58451;51.550;7.208;2023-06-19T03:16:57;100284.40;;;21.80
70831;BMP180;58451;51.550;7.208;2023-06-19T03:18:30;100289.80;;;21.80
70831;BMP180;58451;51.550;7.208;2023-06-19T03:20:02;100289.40;;;21.80
70831;BMP180;58451;51.550;7.208;2023-06-19T03:21:34;100292.00;;;21.90
70831;BMP180;58451;51.550;7.208;2023-06-19T03:23:07;100294.60;;;21.90
70831;BMP180;58451;51.550;7.208;2023-06-19T03:24:39;100295.00;;;21.90
70831;BMP180;58451;51.550;7.208;2023-06-19T03:26:21;100299.60;;;22.00
70831;BMP180;58451;51.550;7.208;2023-06-19T03:27:53;100305.20;;;22.00
70831;BMP180;58451;51.550;7.208;2023-06-19T03:29:25;100304.40;;;22.00
70831;BMP180;58451;51.550;7.208;2023-06-19T03:31:05;100310.40;;;22.04
70831;BMP180;58451;51.550;7.208;2023-06-19T03:32:37;100315.20;;;22.10
70831;BMP180;58451;51.550;7.208;2023-06-19T03:34:09;100316.40;;;22.10
70831;BMP180;58451;51.550;7.208;2023-06-19T03:35:43;100316.00;;;22.10
70831;BMP180;58451;51.550;7.208;2023-06-19T03:37:20;100319.60;;;22.10
70831;BMP180;58451;51.550;7.208;2023-06-19T03:38:53;100323.20;;;22.10
70831;BMP180;58451;51.550;7.208;2023-06-19T03:40:30;100323.60;;;22.10
70831;BMP180;58451;51.550;7.208;2023-06-19T03:42:08;100327.20;;;22.10
70831;BMP180;58451;51.550;7.208;2023-06-19T03:43:40;100326.40;;;22.10
70831;BMP180;58451;51.550;7.208;2023-06-19T03:45:12;100327.00;;;22.10
70831;BMP180;58451;51.550;7.208;2023-06-19T03:46:44;100329.40;;;22.10
70831;BMP180;58451;51.550;7.208;2023-06-19T03:48:17;100335.60;;;22.10
70831;BMP180;58451;51.550;7.208;2023-06-19T03:49:49;100333.00;;;22.10
70831;BMP180;58451;51.550;7.208;2023-06-19T03:51:23;100335.60;;;22.10
70831;BMP180;58451;51.550;7.208;2023-06-19T03:52:55;100335.80;;;22.10
70831;BMP180;58451;51.550;7.208;2023-06-19T03:54:27;100337.40;;;22.02
70831;BMP180;58451;51.550;7.208;2023-06-19T03:55:59;100329.80;;;22.00
70831;BMP180;58451;51.550;7.208;2023-06-19T03:57:31;100338.20;;;22.00
70831;BMP180;58451;51.550;7.208;2023-06-19T03:59:03;100341.20;;;22.00
70831;BMP180;58451;51.550;7.208;2023-06-19T04:00:35;100340.00;;;22.00
70831;BMP180;58451;51.550;7.208;2023-06-19T04:02:07;100343.40;;;21.90
70831;BMP180;58451;51.550;7.208;2023-06-19T04:03:40;100347.80;;;21.90
70831;BMP180;58451;51.550;7.208;2023-06-19T04:05:14;100351.40;;;21.90
70831;BMP180;58451;51.550;7.208;2023-06-19T04:06:49;100349.20;;;21.84
70831;BMP180;58451;51.550;7.208;2023-06-19T04:08:21;100346.20;;;21.84
70831;BMP180;58451;51.550;7.208;2023-06-19T04:09:53;100345.00;;;21.80
70831;BMP180;58451;51.550;7.208;2023-06-19T04:11:25;100349.20;;;21.80
70831;BMP180;58451;51.550;7.208;2023-06-19T04:12:57;100351.20;;;21.80
70831;BMP180;58451;51.550;7.208;2023-06-19T04:14:29;100356.20;;;21.80
70831;BMP180;58451;51.550;7.208;2023-06-19T04:16:03;100360.00;;;21.80
70831;BMP180;58451;51.550;7.208;2023-06-19T04:17:36;100353.60;;;21.80
70831;BMP180;58451;51.550;7.208;2023-06-19T04:19:08;100363.60;;;21.80
70831;BMP180;58451;51.550;7.208;2023-06-19T04:20:40;100368.00;;;21.80
70831;BMP180;58451;51.550;7.208;2023-06-19T04:22:12;100368.00;;;21.80
70831;BMP180;58451;51.550;7.208;2023-06-19T04:23:44;100368.40;;;21.76
70831;BMP180;58451;51.550;7.208;2023-06-19T04:25:16;100374.40;;;21.76
70831;BMP180;58451;51.550;7.208;2023-06-19T04:26:48;100373.60;;;21.80
70831;BMP180;58451;51.550;7.208;2023-06-19T04:28:20;100374.00;;;21.80
70831;BMP180;58451;51.550;7.208;2023-06-19T04:29:51;100372.00;;;21.80
70831;BMP180;58451;51.550;7.208;2023-06-19T04:31:25;100382.00;;;21.72
70831;BMP180;58451;51.550;7.208;2023-06-19T04:32:59;100385.80;;;21.72
70831;BMP180;58451;51.550;7.208;2023-06-19T04:34:31;100387.20;;;21.70
70831;BMP180;58451;51.550;7.208;2023-06-19T04:36:03;100383.80;;;21.64
70831;BMP180;58451;51.550;7.208;2023-06-19T04:37:35;100391.80;;;21.60
70831;BMP180;58451;51.550;7.208;2023-06-19T04:39:07;100393.00;;;21.60
70831;BMP180;58451;51.550;7.208;2023-06-19T04:40:40;100391.00;;;21.60
70831;BMP180;58451;51.550;7.208;2023-06-19T04:42:17;100393.00;;;21.60
70831;BMP180;58451;51.550;7.208;2023-06-19T04:43:51;100397.40;;;21.60
70831;BMP180;58451;51.550;7.208;2023-06-19T04:45:23;100399.40;;;21.58
70831;BMP180;58451;51.550;7.208;2023-06-19T04:46:55;100404.60;;;21.50
70831;BMP180;58451;51.550;7.208;2023-06-19T04:48:33;100410.00;;;21.54
70831;BMP180;58451;51.550;7.208;2023-06-19T04:50:08;100406.00;;;21.58
70831;BMP180;58451;51.550;7.208;2023-06-19T04:51:41;100408.40;;;21.60
70831;BMP180;58451;51.550;7.208;2023-06-19T04:53:14;100405.00;;;21.60
70831;BMP180;58451;51.550;7.208;2023-06-19T04:54:46;100409.00;;;21.60
70831;BMP180;58451;51.550;7.208;2023-06-19T04:56:20;100410.60;;;21.60
70831;BMP180;58451;51.550;7.208;2023-06-19T04:57:52;100415.80;;;21.50
70831;BMP180;58451;51.550;7.208;2023-06-19T04:59:24;100412.00;;;21.50
70831;BMP180;58451;51.550;7.208;2023-06-19T05:00:57;100415.20;;;21.56
70831;BMP180;58451;51.550;7.208;2023-06-19T05:02:29;100418.00;;;21.50
70831;BMP180;58451;51.550;7.208;2023-06-19T05:04:01;100415.00;;;21.50
70831;BMP180;58451;51.550;7.208;2023-06-19T05:05:33;100421.20;;;21.50
70831;BMP180;58451;51.550;7.208;2023-06-19T05:07:05;100420.00;;;21.50
70831;BMP180;58451;51.550;7.208;2023-06-19T05:08:38;100423.00;;;21.52
70831;BMP180;58451;51.550;7.208;2023-06-19T05:10:10;100425.00;;;21.50
70831;BMP180;58451;51.550;7.208;2023-06-19T05:11:43;100430.40;;;21.50
70831;BMP180;58451;51.550;7.208;2023-06-19T05:13:16;100432.40;;;21.60
70831;BMP180;58451;51.550;7.208;2023-06-19T05:14:50;100431.80;;;21.58
70831;BMP180;58451;51.550;7.208;2023-06-19T05:16:22;100439.20;;;21.60
70831;BMP180;58451;51.550;7.208;2023-06-19T05:17:56;100432.80;;;21.60
70831;BMP180;58451;51.550;7.208;2023-06-19T05:19:29;100438.80;;;21.60
70831;BMP180;58451;51.550;7.208;2023-06-19T05:21:01;100441.00;;;21.68
70831;BMP180;58451;51.550;7.208;2023-06-19T05:22:33;100450.00;;;21.60
70831;BMP180;58451;51.550;7.208;2023-06-19T05:24:07;100445.60;;;21.50
70831;BMP180;58451;51.550;7.208;2023-06-19T05:25:39;100440.40;;;21.60
70831;BMP180;58451;51.550;7.208;2023-06-19T05:27:11;100442.60;;;21.60
70831;BMP180;58451;51.550;7.208;2023-06-19T05:28:43;100443.60;;;21.64
70831;BMP180;58451;51.550;7.208;2023-06-19T05:30:15;100443.80;;;21.68
70831;BMP180;58451;51.550;7.208;2023-06-19T05:31:48;100444.60;;;21.70
70831;BMP180;58451;51.550;7.208;2023-06-19T05:33:20;100450.40;;;21.70
70831;BMP180;58451;51.550;7.208;2023-06-19T05:34:55;100450.20;;;21.80
70831;BMP180;58451;51.550;7.208;2023-06-19T05:36:26;100457.40;;;21.70
70831;BMP180;58451;51.550;7.208;2023-06-19T05:37:58;100457.80;;;21.70
70831;BMP180;58451;51.550;7.208;2023-06-19T05:39:30;100454.60;;;21.70
70831;BMP180;58451;51.550;7.208;2023-06-19T05:41:03;100461.20;;;21.80
70831;BMP180;58451;51.550;7.208;2023-06-19T05:42:39;100457.40;;;21.80
70831;BMP180;58451;51.550;7.208;2023-06-19T05:44:12;100453.00;;;21.80
70831;BMP180;58451;51.550;7.208;2023-06-19T05:45:48;100452.80;;;21.90
70831;BMP180;58451;51.550;7.208;2023-06-19T05:47:20;100442.80;;;21.96
70831;BMP180;58451;51.550;7.208;2023-06-19T05:48:52;100458.20;;;22.00
70831;BMP180;58451;51.550;7.208;2023-06-19T05:50:26;100455.20;;;22.10
70831;BMP180;58451;51.550;7.208;2023-06-19T05:51:58;100457.20;;;22.10
70831;BMP180;58451;51.550;7.208;2023-06-19T05:53:30;100455.80;;;22.14
70831;BMP180;58451;51.550;7.208;2023-06-19T05:55:03;100458.80;;;22.20
70831;BMP180;58451;51.550;7.208;2023-06-19T05:56:35;100457.20;;;22.20
70831;BMP180;58451;51.550;7.208;2023-06-19T05:58:08;100462.80;;;22.06
70831;BMP180;58451;51.550;7.208;2023-06-19T05:59:40;100464.00;;;22.10
70831;BMP180;58451;51.550;7.208;2023-06-19T06:01:13;100469.00;;;22.10
70831;BMP180;58451;51.550;7.208;2023-06-19T06:02:45;100466.40;;;22.10
70831;BMP180;58451;51.550;7.208;2023-06-19T06:04:16;100470.20;;;22.00
70831;BMP180;58451;51.550;7.208;2023-06-19T06:05:49;100471.60;;;22.02
70831;BMP180;58451;51.550;7.208;2023-06-19T06:07:21;100474.60;;;22.12
70831;BMP180;58451;51.550;7.208;2023-06-19T06:08:53;100475.80;;;22.20
70831;BMP180;58451;51.550;7.208;2023-06-19T06:10:26;100478.00;;;22.28
70831;BMP180;58451;51.550;7.208;2023-06-19T06:11:59;100480.60;;;22.36
70831;BMP180;58451;51.550;7.208;2023-06-19T06:13:31;100477.40;;;22.30
70831;BMP180;58451;51.550;7.208;2023-06-19T06:15:06;100481.00;;;22.20
70831;BMP180;58451;51.550;7.208;2023-06-19T06:16:38;100482.00;;;22.20
70831;BMP180;58451;51.550;7.208;2023-06-19T06:18:10;100486.80;;;22.10
70831;BMP180;58451;51.550;7.208;2023-06-19T06:19:42;100487.20;;;22.10
70831;BMP180;58451;51.550;7.208;2023-06-19T06:21:14;100488.00;;;22.10
70831;BMP180;58451;51.550;7.208;2023-06-19T06:22:46;100491.60;;;22.10
70831;BMP180;58451;51.550;7.208;2023-06-19T06:24:18;100497.20;;;22.16
70831;BMP180;58451;51.550;7.208;2023-06-19T06:25:50;100491.80;;;22.10
70831;BMP180;58451;51.550;7.208;2023-06-19T06:27:22;100504.80;;;22.10
70831;BMP180;58451;51.550;7.208;2023-06-19T06:28:54;100502.20;;;21.92
70831;BMP180;58451;51.550;7.208;2023-06-19T06:30:26;100502.40;;;21.90
70831;BMP180;58451;51.550;7.208;2023-06-19T06:32:07;100500.80;;;21.82
70831;BMP180;58451;51.550;7.208;2023-06-19T06:33:39;100498.80;;;21.90
70831;BMP180;58451;51.550;7.208;2023-06-19T06:35:11;100502.80;;;22.00
70831;BMP180;58451;51.550;7.208;2023-06-19T06:36:43;100502.80;;;22.10
70831;BMP180;58451;51.550;7.208;2023-06-19T06:38:34;100510.40;;;22.20
70831;BMP180;58451;51.550;7.208;2023-06-19T06:40:07;100510.00;;;22.20
70831;BMP180;58451;51.550;7.208;2023-06-19T06:41:52;100509.20;;;22.30
70831;BMP180;58451;51.550;7.208;2023-06-19T06:43:23;100504.60;;;22.40
70831;BMP180;58451;51.550;7.208;2023-06-19T06:44:56;100502.00;;;22.50
70831;BMP180;58451;51.550;7.208;2023-06-19T06:46:28;100501.60;;;22.58
70831;BMP180;58451;51.550;7.208;2023-06-19T06:48:00;100502.80;;;22.70
70831;BMP180;58451;51.550;7.208;2023-06-19T06:49:32;100507.60;;;22.70
70831;BMP180;58451;51.550;7.208;2023-06-19T06:51:04;100507.40;;;22.80
70831;BMP180;58451;51.550;7.208;2023-06-19T06:52:35;100513.20;;;22.90
70831;BMP180;58451;51.550;7.208;2023-06-19T06:54:08;100510.80;;;22.90
70831;BMP180;58451;51.550;7.208;2023-06-19T06:55:39;100515.40;;;23.00
70831;BMP180;58451;51.550;7.208;2023-06-19T06:57:12;100517.80;;;22.92
70831;BMP180;58451;51.550;7.208;2023-06-19T06:58:43;100519.00;;;22.90
70831;BMP180;58451;51.550;7.208;2023-06-19T07:00:17;100514.20;;;22.90
70831;BMP180;58451;51.550;7.208;2023-06-19T07:01:49;100514.40;;;22.90
70831;BMP180;58451;51.550;7.208;2023-06-19T07:03:21;100524.20;;;22.90
70831;BMP180;58451;51.550;7.208;2023-06-19T07:04:54;100516.80;;;22.90
70831;BMP180;58451;51.550;7.208;2023-06-19T07:06:26;100524.20;;;22.88
70831;BMP180;58451;51.550;7.208;2023-06-19T07:07:58;100525.00;;;22.80
70831;BMP180;58451;51.550;7.208;2023-06-19T07:09:30;100527.80;;;22.80
70831;BMP180;58451;51.550;7.208;2023-06-19T07:11:02;100527.60;;;22.80
70831;BMP180;58451;51.550;7.208;2023-06-19T07:12:34;100525.20;;;22.80
70831;BMP180;58451;51.550;7.208;2023-06-19T07:14:06;100531.60;;;22.80
70831;BMP180;58451;51.550;7.208;2023-06-19T07:15:38;100529.00;;;22.78
70831;BMP180;58451;51.550;7.208;2023-06-19T07:17:09;100526.20;;;22.70
70831;BMP180;58451;51.550;7.208;2023-06-19T07:18:41;100530.40;;;22.70
70831;BMP180;58451;51.550;7.208;2023-06-19T07:20:14;100529.20;;;22.68
70831;BMP180;58451;51.550;7.208;2023-06-19T07:21:47;100531.80;;;22.70
70831;BMP180;58451;51.550;7.208;2023-06-19T07:23:19;100534.80;;;22.68
70831;BMP180;58451;51.550;7.208;2023-06-19T07:24:51;100535.00;;;22.60
70831;BMP180;58451;51.550;7.208;2023-06-19T07:26:23;100536.20;;;22.60
70831;BMP180;58451;51.550;7.208;2023-06-19T07:27:55;100536.80;;;22.50
70831;BMP180;58451;51.550;7.208;2023-06-19T07:29:27;100536.80;;;22.50
70831;BMP180;58451;51.550;7.208;2023-06-19T07:30:58;100542.20;;;22.40
70831;BMP180;58451;51.550;7.208;2023-06-19T07:32:30;100539.60;;;22.40
70831;BMP180;58451;51.550;7.208;2023-06-19T07:34:02;100545.20;;;22.40
70831;BMP180;58451;51.550;7.208;2023-06-19T07:35:34;100542.40;;;22.50
70831;BMP180;58451;51.550;7.208;2023-06-19T07:37:06;100555.00;;;22.42
70831;BMP180;58451;51.550;7.208;2023-06-19T07:38:38;100558.40;;;22.28
70831;BMP180;58451;51.550;7.208;2023-06-19T07:40:10;100560.60;;;22.30
70831;BMP180;58451;51.550;7.208;2023-06-19T07:41:42;100556.40;;;22.30
70831;BMP180;58451;51.550;7.208;2023-06-19T07:43:16;100552.40;;;22.24
70831;BMP180;58451;51.550;7.208;2023-06-19T07:44:49;100554.40;;;22.20
70831;BMP180;58451;51.550;7.208;2023-06-19T07:46:20;100548.80;;;22.20
70831;BMP180;58451;51.550;7.208;2023-06-19T07:47:56;100556.00;;;22.30
70831;BMP180;58451;51.550;7.208;2023-06-19T07:49:28;100559.80;;;22.30
70831;BMP180;58451;51.550;7.208;2023-06-19T07:51:00;100557.60;;;22.30
70831;BMP180;58451;51.550;7.208;2023-06-19T07:52:32;100562.20;;;22.30
70831;BMP180;58451;51.550;7.208;2023-06-19T07:54:05;100562.80;;;22.10
70831;BMP180;58451;51.550;7.208;2023-06-19T07:55:36;100562.00;;;22.10
70831;BMP180;58451;51.550;7.208;2023-06-19T07:57:08;100566.40;;;22.10
70831;BMP180;58451;51.550;7.208;2023-06-19T07:58:40;100561.80;;;21.92
70831;BMP180;58451;51.550;7.208;2023-06-19T08:00:13;100556.60;;;22.00
70831;BMP180;58451;51.550;7.208;2023-06-19T08:01:45;100561.40;;;21.96
70831;BMP180;58451;51.550;7.208;2023-06-19T08:03:17;100567.00;;;22.00
70831;BMP180;58451;51.550;7.208;2023-06-19T08:04:49;100562.80;;;22.10
70831;BMP180;58451;51.550;7.208;2023-06-19T08:06:21;100562.00;;;22.14
70831;BMP180;58451;51.550;7.208;2023-06-19T08:07:53;100558.40;;;22.20
70831;BMP180;58451;51.550;7.208;2023-06-19T08:09:25;100559.40;;;22.20
70831;BMP180;58451;51.550;7.208;2023-06-19T08:10:57;100570.00;;;22.10
70831;BMP180;58451;51.550;7.208;2023-06-19T08:12:28;100565.40;;;22.10
70831;BMP180;58451;51.550;7.208;2023-06-19T08:14:00;100570.00;;;22.16
70831;BMP180;58451;51.550;7.208;2023-06-19T08:15:32;100565.00;;;22.24
70831;BMP180;58451;51.550;7.208;2023-06-19T08:17:04;100569.60;;;22.40
70831;BMP180;58451;51.550;7.208;2023-06-19T08:18:36;100568.40;;;22.50
70831;BMP180;58451;51.550;7.208;2023-06-19T08:20:09;100567.40;;;22.60
70831;BMP180;58451;51.550;7.208;2023-06-19T08:21:41;100567.80;;;22.66
70831;BMP180;58451;51.550;7.208;2023-06-19T08:23:13;100566.00;;;22.80
70831;BMP180;58451;51.550;7.208;2023-06-19T08:24:45;100566.00;;;22.70
70831;BMP180;58451;51.550;7.208;2023-06-19T08:26:17;100567.60;;;22.80
70831;BMP180;58451;51.550;7.208;2023-06-19T08:27:49;100564.20;;;22.90
70831;BMP180;58451;51.550;7.208;2023-06-19T08:29:21;100565.20;;;22.96
70831;BMP180;58451;51.550;7.208;2023-06-19T08:30:54;100563.80;;;22.90
70831;BMP180;58451;51.550;7.208;2023-06-19T08:32:26;100565.40;;;23.00
70831;BMP180;58451;51.550;7.208;2023-06-19T08:33:58;100565.00;;;23.18
70831;BMP180;58451;51.550;7.208;2023-06-19T08:35:30;100564.00;;;23.16
70831;BMP180;58451;51.550;7.208;2023-06-19T08:37:02;100565.60;;;23.10
70831;BMP180;58451;51.550;7.208;2023-06-19T08:38:34;100563.00;;;23.22
70831;BMP180;58451;51.550;7.208;2023-06-19T08:40:07;100565.60;;;23.40
70831;BMP180;58451;51.550;7.208;2023-06-19T08:41:42;100562.00;;;23.40
70831;BMP180;58451;51.550;7.208;2023-06-19T08:43:14;100561.60;;;23.40
70831;BMP180;58451;51.550;7.208;2023-06-19T08:44:45;100572.00;;;23.50
70831;BMP180;58451;51.550;7.208;2023-06-19T08:46:18;100561.60;;;23.60
70831;BMP180;58451;51.550;7.208;2023-06-19T08:48:02;100563.20;;;23.76
70831;BMP180;58451;51.550;7.208;2023-06-19T08:49:43;100556.60;;;23.60
70831;BMP180;58451;51.550;7.208;2023-06-19T08:51:15;100555.40;;;23.60
70831;BMP180;58451;51.550;7.208;2023-06-19T08:52:47;100556.80;;;23.72